createdAt,value
2017-12-15T00:01:57.385Z,4.80
2017-12-15T00:04:24.900Z,4.80
2017-12-15T00:06:52.388Z,4.80
2017-12-15T00:09:19.967Z,4.90
2017-12-15T00:11:47.465Z,4.80
2017-12-15T00:14:14.965Z,4.80
2017-12-15T00:16:43.239Z,4.80
2017-12-15T00:19:12.539Z,4.70
2017-12-15T00:21:40.027Z,4.80
2017-12-15T00:24:07.539Z,4.80
2017-12-15T00:26:35.044Z,4.80
2017-12-15T00:29:02.555Z,4.80
2017-12-15T00:31:30.823Z,4.90
2017-12-15T00:33:58.328Z,4.80
2017-12-15T00:36:35.951Z,4.80
2017-12-15T00:39:03.486Z,4.80
2017-12-15T00:41:31.752Z,5.00
2017-12-15T00:43:59.257Z,4.90
2017-12-15T00:46:26.739Z,4.90
2017-12-15T00:48:54.285Z,5.00
2017-12-15T00:51:22.544Z,5.00
2017-12-15T00:53:50.033Z,5.00
2017-12-15T00:56:17.563Z,5.00
2017-12-15T00:58:45.058Z,5.00
2017-12-15T01:01:12.580Z,5.10
2017-12-15T01:03:40.094Z,5.10
2017-12-15T01:06:07.599Z,5.00
2017-12-15T01:08:35.844Z,5.10
2017-12-15T01:11:03.401Z,5.10
2017-12-15T01:13:30.887Z,5.00
2017-12-15T01:15:58.383Z,5.00
2017-12-15T01:18:25.866Z,4.90
2017-12-15T01:20:54.158Z,4.90
2017-12-15T01:23:22.416Z,5.00
2017-12-15T01:25:49.915Z,4.90
2017-12-15T01:28:18.196Z,5.00
2017-12-15T01:30:46.471Z,4.90
2017-12-15T01:33:13.948Z,4.90
2017-12-15T01:35:41.454Z,4.90
2017-12-15T01:38:08.934Z,5.00
2017-12-15T01:40:37.192Z,4.80
2017-12-15T01:43:05.430Z,4.90
2017-12-15T01:45:33.036Z,4.80
2017-12-15T01:48:00.540Z,4.80
2017-12-15T01:50:28.060Z,4.90
2017-12-15T01:52:55.548Z,4.80
2017-12-15T01:55:23.077Z,4.80
2017-12-15T01:57:50.851Z,4.90
2017-12-15T02:00:18.348Z,4.90
2017-12-15T02:02:45.872Z,4.90
2017-12-15T02:05:13.373Z,4.90
2017-12-15T02:07:40.925Z,4.70
2017-12-15T02:10:08.403Z,4.80
2017-12-15T02:12:35.908Z,4.80
2017-12-15T02:15:03.396Z,4.70
2017-12-15T02:17:31.673Z,4.60
2017-12-15T02:19:59.173Z,4.50
2017-12-15T02:22:26.684Z,4.50
2017-12-15T02:24:54.164Z,4.50
2017-12-15T02:27:21.673Z,4.50
2017-12-15T02:29:49.944Z,4.60
2017-12-15T02:32:18.235Z,4.60
2017-12-15T02:34:45.757Z,4.50
2017-12-15T02:37:13.282Z,4.60
2017-12-15T02:39:41.536Z,4.60
2017-12-15T02:42:09.043Z,4.60
2017-12-15T02:44:37.287Z,4.50
2017-12-15T02:47:04.764Z,4.50
2017-12-15T02:49:32.289Z,4.50
2017-12-15T02:51:59.808Z,4.50
2017-12-15T02:54:27.303Z,4.60
2017-12-15T02:56:55.588Z,4.60
2017-12-15T02:59:23.108Z,4.50
2017-12-15T03:01:50.592Z,4.60
2017-12-15T03:04:18.105Z,4.60
2017-12-15T03:06:45.576Z,4.60
2017-12-15T03:09:13.086Z,4.60
2017-12-15T03:11:40.577Z,4.60
2017-12-15T03:14:09.009Z,4.60
2017-12-15T03:16:36.488Z,4.60
2017-12-15T03:19:04.756Z,4.50
2017-12-15T03:21:32.307Z,4.50
2017-12-15T03:23:59.824Z,4.50
2017-12-15T03:26:28.071Z,4.60
2017-12-15T03:28:59.512Z,4.50
2017-12-15T03:31:35.143Z,4.60
2017-12-15T03:34:02.649Z,4.60
2017-12-15T03:36:30.130Z,4.70
2017-12-15T03:38:57.703Z,4.60
2017-12-15T03:41:25.240Z,4.60
2017-12-15T03:43:52.761Z,4.70
2017-12-15T03:46:20.255Z,4.80
2017-12-15T03:48:48.502Z,4.80
2017-12-15T03:51:16.094Z,4.70
2017-12-15T03:53:43.604Z,4.70
2017-12-15T03:56:11.748Z,4.80
2017-12-15T03:58:39.230Z,4.80
2017-12-15T04:01:07.500Z,4.80
2017-12-15T04:03:34.980Z,4.70
2017-12-15T04:06:02.507Z,4.80
2017-12-15T04:08:30.006Z,4.70
2017-12-15T04:10:57.526Z,4.60
2017-12-15T04:13:25.021Z,4.60
2017-12-15T04:15:52.532Z,4.60
2017-12-15T04:18:20.032Z,4.60
2017-12-15T04:20:47.548Z,4.70
2017-12-15T04:23:15.058Z,4.60
2017-12-15T04:25:43.335Z,4.40
2017-12-15T04:28:10.835Z,4.40
2017-12-15T04:30:38.337Z,4.40
2017-12-15T04:33:05.821Z,4.20
2017-12-15T04:35:33.396Z,4.30
2017-12-15T04:38:00.896Z,4.20
2017-12-15T04:40:29.168Z,4.10
2017-12-15T04:42:56.652Z,4.10
2017-12-15T04:45:24.149Z,4.10
2017-12-15T04:47:51.644Z,4.00
2017-12-15T04:50:19.155Z,4.00
2017-12-15T04:52:46.636Z,3.90
2017-12-15T04:55:14.916Z,3.90
2017-12-15T04:57:42.404Z,3.90
2017-12-15T05:00:10.691Z,3.80
2017-12-15T05:02:38.935Z,3.80
2017-12-15T05:05:06.451Z,3.70
2017-12-15T05:07:34.713Z,3.70
2017-12-15T05:10:02.326Z,3.60
2017-12-15T05:12:29.851Z,3.60
2017-12-15T05:14:57.343Z,3.50
2017-12-15T05:17:25.604Z,3.60
2017-12-15T05:19:53.244Z,3.50
2017-12-15T05:22:20.756Z,3.60
2017-12-15T05:24:48.244Z,3.60
2017-12-15T05:27:16.535Z,3.60
2017-12-15T05:29:44.809Z,3.60
2017-12-15T05:32:12.322Z,3.60
2017-12-15T05:34:39.800Z,3.70
2017-12-15T05:37:07.306Z,3.70
2017-12-15T05:39:34.791Z,3.60
2017-12-15T05:42:02.329Z,3.70
2017-12-15T05:44:29.880Z,3.60
2017-12-15T05:46:57.387Z,3.70
2017-12-15T05:49:24.868Z,3.60
2017-12-15T05:51:52.397Z,3.70
2017-12-15T05:54:19.883Z,3.60
2017-12-15T05:56:47.384Z,3.60
2017-12-15T05:59:14.871Z,3.70
2017-12-15T06:01:43.165Z,3.60
2017-12-15T06:04:10.649Z,3.50
2017-12-15T06:06:38.153Z,3.50
2017-12-15T06:09:05.632Z,3.50
2017-12-15T06:11:33.192Z,3.40
2017-12-15T06:14:00.688Z,3.40
2017-12-15T06:16:28.211Z,3.50
2017-12-15T06:18:55.688Z,3.60
2017-12-15T06:21:23.344Z,3.50
2017-12-15T06:23:50.908Z,3.50
2017-12-15T06:26:18.442Z,3.50
2017-12-15T06:28:45.919Z,3.50
2017-12-15T06:31:13.472Z,3.50
2017-12-15T06:33:40.972Z,3.60
2017-12-15T06:36:08.468Z,3.60
2017-12-15T06:38:35.952Z,3.70
2017-12-15T06:41:20.065Z,3.70
2017-12-15T06:43:47.544Z,3.70
2017-12-15T06:46:15.816Z,3.80
2017-12-15T06:48:43.292Z,3.70
2017-12-15T06:51:10.779Z,3.80
2017-12-15T06:53:39.024Z,3.80
2017-12-15T06:56:06.530Z,3.70
2017-12-15T06:58:34.012Z,3.80
2017-12-15T07:01:01.524Z,3.80
2017-12-15T07:03:29.000Z,3.70
2017-12-15T07:05:56.512Z,3.70
2017-12-15T07:08:24.761Z,3.80
2017-12-15T07:10:54.176Z,3.80
2017-12-15T07:13:21.656Z,3.80
2017-12-15T07:15:49.150Z,3.80
2017-12-15T07:18:16.628Z,3.70
2017-12-15T07:20:44.888Z,3.70
2017-12-15T07:23:12.366Z,3.70
2017-12-15T07:25:39.857Z,3.70
2017-12-15T07:28:07.408Z,3.70
2017-12-15T07:30:34.865Z,3.70
2017-12-15T07:33:02.376Z,3.60
2017-12-15T07:35:30.617Z,3.70
2017-12-15T07:37:58.119Z,3.60
2017-12-15T07:40:25.599Z,3.70
2017-12-15T07:42:53.855Z,3.70
2017-12-15T07:45:21.332Z,3.70
2017-12-15T07:47:48.830Z,3.70
2017-12-15T07:50:17.072Z,3.80
2017-12-15T07:52:44.571Z,3.80
2017-12-15T07:55:12.053Z,3.80
2017-12-15T07:57:40.308Z,3.90
2017-12-15T08:00:07.795Z,3.80
2017-12-15T08:02:35.292Z,3.80
2017-12-15T08:05:03.536Z,3.80
2017-12-15T08:07:31.040Z,3.80
2017-12-15T08:09:59.285Z,4.00
2017-12-15T08:12:26.780Z,3.90
2017-12-15T08:14:54.253Z,3.90
2017-12-15T08:17:21.751Z,3.90
2017-12-15T08:19:49.228Z,3.80
2017-12-15T08:22:16.720Z,3.90
2017-12-15T08:24:44.195Z,3.90
2017-12-15T08:27:11.700Z,4.00
2017-12-15T08:29:39.179Z,4.00
2017-12-15T08:32:06.666Z,4.10
2017-12-15T08:34:34.922Z,4.10
2017-12-15T08:37:02.419Z,4.00
2017-12-15T08:39:30.744Z,4.10
2017-12-15T08:41:58.235Z,4.10
2017-12-15T08:44:25.736Z,4.00
2017-12-15T08:46:53.217Z,4.10
2017-12-15T08:49:21.464Z,4.10
2017-12-15T08:51:48.959Z,4.10
2017-12-15T08:54:16.432Z,4.10
2017-12-15T08:56:43.932Z,4.10
2017-12-15T08:59:11.407Z,4.10
2017-12-15T09:01:38.904Z,4.20
2017-12-15T09:04:12.039Z,4.10
2017-12-15T09:06:45.127Z,4.00
2017-12-15T09:11:44.951Z,3.90
2017-12-15T09:14:12.620Z,3.80
2017-12-15T09:16:40.116Z,3.80
2017-12-15T09:19:07.608Z,3.80
2017-12-15T09:21:35.110Z,3.70
2017-12-15T09:24:02.588Z,3.50
2017-12-15T09:26:30.083Z,3.30
2017-12-15T09:28:57.563Z,3.30
2017-12-15T09:31:25.071Z,3.10
2017-12-15T09:33:53.315Z,3.00
2017-12-15T09:36:20.812Z,3.00
2017-12-15T09:38:48.283Z,2.90
2017-12-15T09:41:15.792Z,2.70
2017-12-15T09:43:43.290Z,2.70
2017-12-15T09:46:10.768Z,2.80
2017-12-15T09:48:38.259Z,2.80
2017-12-15T09:51:05.731Z,2.90
2017-12-15T09:53:33.224Z,2.80
2017-12-15T09:56:01.468Z,2.80
2017-12-15T09:58:28.963Z,2.70
2017-12-15T10:00:56.443Z,2.70
2017-12-15T10:03:23.936Z,2.70
2017-12-15T10:05:51.399Z,2.80
2017-12-15T10:08:19.670Z,2.80
2017-12-15T10:10:47.929Z,2.90
2017-12-15T10:13:15.428Z,2.80
2017-12-15T10:15:42.899Z,2.90
2017-12-15T10:18:10.400Z,2.80
2017-12-15T10:20:37.888Z,2.70
2017-12-15T10:23:06.155Z,2.60
2017-12-15T10:25:33.624Z,2.50
2017-12-15T10:28:01.112Z,2.50
2017-12-15T10:30:28.593Z,2.50
2017-12-15T10:32:56.129Z,2.50
2017-12-15T10:35:23.784Z,2.60
2017-12-15T10:37:52.043Z,2.70
2017-12-15T10:40:19.512Z,2.60
2017-12-15T10:42:47.008Z,2.70
2017-12-15T10:45:18.219Z,2.60
2017-12-15T10:47:45.716Z,2.60
2017-12-15T10:50:13.193Z,2.60
2017-12-15T10:52:40.680Z,2.60
2017-12-15T10:55:08.947Z,2.70
2017-12-15T10:57:36.457Z,2.70
2017-12-15T11:00:03.932Z,2.80
2017-12-15T11:02:31.436Z,2.80
2017-12-15T11:04:58.912Z,2.90
2017-12-15T11:07:26.437Z,3.00
2017-12-15T11:09:53.907Z,3.10
2017-12-15T11:12:21.414Z,3.20
2017-12-15T11:14:48.957Z,3.30
2017-12-15T11:17:17.224Z,3.30
2017-12-15T11:19:44.705Z,3.30
2017-12-15T11:22:12.980Z,3.40
2017-12-15T11:24:41.228Z,3.40
2017-12-15T11:27:08.729Z,3.40
2017-12-15T11:29:36.225Z,3.50
2017-12-15T11:32:03.731Z,3.60
2017-12-15T11:34:31.247Z,3.60
2017-12-15T11:36:59.511Z,3.70
2017-12-15T11:39:26.984Z,3.70
2017-12-15T11:41:54.475Z,3.80
2017-12-15T11:44:22.716Z,3.80
2017-12-15T11:46:50.216Z,3.80
2017-12-15T11:49:17.702Z,3.90
2017-12-15T11:51:45.971Z,3.90
2017-12-15T11:54:13.456Z,3.90
2017-12-15T11:56:41.708Z,4.00
2017-12-15T11:59:09.212Z,4.00
2017-12-15T12:01:36.687Z,4.10
2017-12-15T12:04:04.954Z,4.10
2017-12-15T12:06:32.431Z,4.10
2017-12-15T12:08:59.931Z,4.10
2017-12-15T12:11:28.176Z,4.10
2017-12-15T12:13:55.697Z,4.10
2017-12-15T12:16:23.170Z,4.10
2017-12-15T12:18:50.667Z,4.10
2017-12-15T12:21:18.146Z,4.20
2017-12-15T12:23:45.639Z,4.20
2017-12-15T12:26:13.111Z,4.30
2017-12-15T12:28:40.612Z,4.20
2017-12-15T12:31:08.856Z,4.20
2017-12-15T12:33:36.354Z,4.20
2017-12-15T12:36:04.600Z,4.30
2017-12-15T12:38:32.093Z,4.20
2017-12-15T12:40:59.568Z,4.30
2017-12-15T12:43:27.063Z,4.30
2017-12-15T12:45:55.308Z,4.30
2017-12-15T12:48:22.800Z,4.30
2017-12-15T12:50:50.288Z,4.40
2017-12-15T12:53:17.785Z,4.40
2017-12-15T12:55:45.271Z,4.40
2017-12-15T12:58:12.760Z,4.40
2017-12-15T13:00:40.244Z,4.40
2017-12-15T13:03:07.744Z,4.40
2017-12-15T13:05:35.230Z,4.50
2017-12-15T13:08:02.727Z,4.40
2017-12-15T13:10:30.207Z,4.50
2017-12-15T13:12:57.704Z,4.40
2017-12-15T13:15:25.174Z,4.50
2017-12-15T13:17:53.444Z,4.40
2017-12-15T13:20:20.915Z,4.40
2017-12-15T13:22:48.403Z,4.40
2017-12-15T13:25:16.651Z,4.40
2017-12-15T13:27:44.142Z,4.40
2017-12-15T13:30:11.617Z,4.40
2017-12-15T13:32:39.120Z,4.40
2017-12-15T13:35:07.367Z,4.40
2017-12-15T13:37:34.876Z,4.40
2017-12-15T13:40:03.111Z,4.50
2017-12-15T13:42:30.608Z,4.40
2017-12-15T13:44:58.087Z,4.50
2017-12-15T13:47:26.355Z,4.40
2017-12-15T13:49:53.823Z,4.40
2017-12-15T13:52:21.315Z,4.40
2017-12-15T13:54:49.556Z,4.50
2017-12-15T13:57:17.032Z,4.50
2017-12-15T13:59:44.527Z,4.60
2017-12-15T14:02:12.006Z,4.50
2017-12-15T14:04:39.504Z,4.50
2017-12-15T14:07:06.978Z,4.40
2017-12-15T14:09:34.475Z,4.50
2017-12-15T14:12:01.953Z,4.50
2017-12-15T14:14:29.449Z,4.50
2017-12-15T14:16:56.928Z,4.60
2017-12-15T14:19:24.420Z,4.50
2017-12-15T14:21:51.892Z,4.50
2017-12-15T14:24:19.386Z,4.50
2017-12-15T14:26:46.867Z,4.50
2017-12-15T14:29:14.372Z,4.50
2017-12-15T14:31:41.854Z,4.50
2017-12-15T14:34:10.120Z,4.60
2017-12-15T14:36:37.606Z,4.60
2017-12-15T14:39:05.104Z,4.60
2017-12-15T14:41:32.584Z,4.80
2017-12-15T14:44:00.072Z,4.80
2017-12-15T14:46:27.542Z,4.80
2017-12-15T14:48:55.064Z,4.80
2017-12-15T14:51:22.527Z,4.70
2017-12-15T14:53:50.787Z,4.70
2017-12-15T14:56:18.263Z,4.60
2017-12-15T14:58:45.759Z,4.70
2017-12-15T15:01:14.002Z,4.70
2017-12-15T15:03:41.508Z,4.70
2017-12-15T15:06:08.988Z,4.70
2017-12-15T15:08:37.252Z,4.70
2017-12-15T15:11:04.728Z,4.70
2017-12-15T15:13:32.220Z,4.70
2017-12-15T15:16:00.463Z,4.60
2017-12-15T15:18:27.969Z,4.60
2017-12-15T15:20:55.455Z,4.70
2017-12-15T15:23:23.733Z,4.60
2017-12-15T15:25:51.971Z,4.60
2017-12-15T15:28:19.489Z,4.50
2017-12-15T15:30:47.735Z,4.60
2017-12-15T15:33:15.239Z,4.50
2017-12-15T15:35:42.723Z,4.50
2017-12-15T15:38:10.996Z,4.50
2017-12-15T15:40:39.256Z,4.50
2017-12-15T15:43:06.752Z,4.40
2017-12-15T15:45:34.244Z,4.50
2017-12-15T15:48:02.507Z,4.50
2017-12-15T15:50:29.984Z,4.40
2017-12-15T15:52:57.484Z,4.40
2017-12-15T15:55:24.964Z,4.40
2017-12-15T15:57:53.240Z,4.50
2017-12-15T16:00:20.723Z,4.50
2017-12-15T16:02:48.192Z,4.50
2017-12-15T16:05:15.711Z,4.50
2017-12-15T16:07:43.190Z,4.50
2017-12-15T16:10:10.684Z,4.50
2017-12-15T16:12:38.932Z,4.40
2017-12-15T16:15:06.423Z,4.40
2017-12-15T16:17:34.677Z,4.40
2017-12-15T16:20:02.184Z,4.30
2017-12-15T16:22:30.431Z,4.40
2017-12-15T16:24:57.928Z,4.30
2017-12-15T16:27:25.413Z,4.40
2017-12-15T16:29:53.693Z,4.40
2017-12-15T16:32:21.160Z,4.30
2017-12-15T16:34:48.665Z,4.30
2017-12-15T16:37:16.143Z,4.40
2017-12-15T16:39:43.640Z,4.30
2017-12-15T16:42:11.115Z,4.40
2017-12-15T16:44:38.611Z,4.40
2017-12-15T16:47:06.084Z,4.40
2017-12-15T16:49:33.577Z,4.40
2017-12-15T16:52:01.053Z,4.40
2017-12-15T16:54:28.543Z,4.40
2017-12-15T16:56:56.015Z,4.50
2017-12-15T16:59:24.279Z,4.50
2017-12-15T17:01:51.756Z,4.40
2017-12-15T17:04:19.263Z,4.50
2017-12-15T17:06:46.741Z,4.50
2017-12-15T17:09:14.244Z,4.50
2017-12-15T17:11:42.484Z,4.40
2017-12-15T17:14:09.984Z,4.40
2017-12-15T17:16:37.467Z,4.50
2017-12-15T17:19:04.992Z,4.50
2017-12-15T17:21:32.471Z,4.50
2017-12-15T17:23:59.972Z,4.50
2017-12-15T17:26:27.452Z,4.50
2017-12-15T17:28:55.716Z,4.40
2017-12-15T17:31:23.194Z,4.40
2017-12-15T17:33:50.763Z,4.50
2017-12-15T17:36:18.245Z,4.50
2017-12-15T17:38:46.061Z,4.50
2017-12-15T17:41:14.184Z,4.50
2017-12-15T17:43:41.692Z,4.50
2017-12-15T17:46:09.940Z,4.30
2017-12-15T17:48:37.441Z,4.30
2017-12-15T17:51:05.712Z,4.40
2017-12-15T17:53:33.375Z,4.40
2017-12-15T17:56:00.856Z,4.40
2017-12-15T17:58:28.364Z,4.30
2017-12-15T18:00:55.843Z,4.40
2017-12-15T18:03:23.347Z,4.50
2017-12-15T18:05:50.825Z,4.50
2017-12-15T18:08:18.315Z,4.50
2017-12-15T18:10:45.834Z,4.50
2017-12-15T18:13:13.319Z,4.60
2017-12-15T18:15:40.830Z,4.60
2017-12-15T18:18:08.312Z,4.60
2017-12-15T18:20:38.581Z,4.60
2017-12-15T18:23:06.160Z,4.50
2017-12-15T18:25:33.656Z,4.60
2017-12-15T18:28:02.621Z,4.60
2017-12-15T18:30:30.120Z,4.60
2017-12-15T18:32:57.664Z,4.60
2017-12-15T18:35:25.185Z,4.50
2017-12-15T18:37:52.689Z,4.50
2017-12-15T18:40:20.188Z,4.50
2017-12-15T18:42:51.915Z,4.50
2017-12-15T18:45:20.213Z,4.40
2017-12-15T18:47:48.484Z,4.50
2017-12-15T18:50:16.767Z,4.60
2017-12-15T18:52:44.264Z,4.60
2017-12-15T18:55:11.776Z,4.60
2017-12-15T18:57:39.261Z,4.60
2017-12-15T19:00:06.772Z,4.50
2017-12-15T19:02:34.264Z,4.40
2017-12-15T19:05:02.265Z,4.50
2017-12-15T19:07:29.756Z,4.50
2017-12-15T19:09:57.360Z,4.40
2017-12-15T19:12:25.670Z,4.30
2017-12-15T19:14:53.912Z,4.30
2017-12-15T19:17:21.414Z,4.20
2017-12-15T19:19:49.687Z,4.20
2017-12-15T19:22:17.972Z,4.30
2017-12-15T19:24:45.521Z,4.20
2017-12-15T19:27:13.010Z,4.30
2017-12-15T19:29:40.516Z,4.40
2017-12-15T19:32:08.004Z,4.40
2017-12-15T19:34:36.559Z,4.40
2017-12-15T19:37:04.052Z,4.40
2017-12-15T19:39:31.596Z,4.40
2017-12-15T19:41:59.839Z,4.30
2017-12-15T19:44:27.339Z,4.20
2017-12-15T19:46:54.823Z,4.30
2017-12-15T19:49:23.092Z,4.30
2017-12-15T19:51:50.585Z,4.30
2017-12-15T19:54:23.355Z,4.30
2017-12-15T19:56:50.851Z,4.30
2017-12-15T19:59:19.127Z,4.30
2017-12-15T20:01:46.612Z,4.20
2017-12-15T20:04:14.884Z,4.30
2017-12-15T20:06:42.359Z,4.30
2017-12-15T20:09:10.628Z,4.40
2017-12-15T20:11:38.108Z,4.30
2017-12-15T20:14:05.682Z,4.30
2017-12-15T20:16:33.949Z,4.30
2017-12-15T20:19:01.460Z,4.20
2017-12-15T20:21:29.724Z,4.30
2017-12-15T20:23:58.054Z,4.20
2017-12-15T20:26:25.557Z,4.30
2017-12-15T20:28:56.872Z,4.30
2017-12-15T20:31:28.028Z,4.30
2017-12-15T20:33:59.279Z,4.30
2017-12-15T20:36:27.536Z,4.40
2017-12-15T20:38:55.016Z,4.30
2017-12-15T20:41:22.528Z,4.30
2017-12-15T20:43:50.059Z,4.40
2017-12-15T20:46:17.572Z,4.40
2017-12-15T20:48:45.112Z,4.50
2017-12-15T20:51:13.389Z,4.50
2017-12-15T20:53:40.882Z,4.40
2017-12-15T20:56:08.404Z,4.50
2017-12-15T20:58:35.888Z,4.50
2017-12-15T21:01:03.383Z,4.40
2017-12-15T21:03:31.709Z,4.40
2017-12-15T21:05:59.230Z,4.40
2017-12-15T21:08:26.721Z,4.40
2017-12-15T21:10:55.259Z,4.50
2017-12-15T21:13:22.748Z,4.40
2017-12-15T21:15:50.255Z,4.50
2017-12-15T21:18:18.515Z,4.30
2017-12-15T21:20:46.031Z,4.30
2017-12-15T21:23:13.538Z,4.40
2017-12-15T21:25:41.047Z,4.40
2017-12-15T21:28:09.316Z,4.40
2017-12-15T21:30:36.847Z,4.30
2017-12-15T21:33:04.748Z,4.40
2017-12-15T21:35:32.341Z,4.30
2017-12-15T21:37:59.860Z,4.30
2017-12-15T21:40:27.408Z,4.30
2017-12-15T21:42:54.985Z,4.30
2017-12-15T21:45:22.497Z,4.30
2017-12-15T21:47:49.980Z,4.40
2017-12-15T21:50:17.482Z,4.30
2017-12-15T21:52:45.729Z,4.30
2017-12-15T21:55:13.235Z,4.20
2017-12-15T21:57:40.756Z,4.20
2017-12-15T22:00:08.284Z,4.20
2017-12-15T22:02:36.575Z,4.20
2017-12-15T22:05:04.854Z,4.20
2017-12-15T22:07:33.256Z,4.30
2017-12-15T22:10:01.540Z,4.30
2017-12-15T22:12:29.808Z,4.40
2017-12-15T22:14:57.315Z,4.30
2017-12-15T22:17:24.865Z,4.30
2017-12-15T22:19:53.160Z,4.30
2017-12-15T22:22:20.664Z,4.30
2017-12-15T22:24:48.189Z,4.30
2017-12-15T22:27:16.043Z,4.30
2017-12-15T22:29:43.556Z,4.30
2017-12-15T22:32:11.818Z,4.20
2017-12-15T22:34:39.328Z,4.20
2017-12-15T22:37:06.853Z,4.20
2017-12-15T22:39:34.696Z,4.20
2017-12-15T22:42:02.189Z,4.20
2017-12-15T22:44:29.692Z,4.10
2017-12-15T22:46:57.191Z,4.10
2017-12-15T22:49:24.687Z,4.10
2017-12-15T22:51:52.188Z,4.10
2017-12-15T22:54:19.680Z,4.10
2017-12-15T22:56:47.957Z,4.20
2017-12-15T22:59:16.219Z,4.20
2017-12-15T23:01:43.720Z,4.20
2017-12-15T23:04:11.206Z,4.20
2017-12-15T23:06:39.494Z,4.30
2017-12-15T23:09:07.747Z,4.40
2017-12-15T23:11:35.247Z,4.40
2017-12-15T23:14:03.500Z,4.40
2017-12-15T23:16:31.016Z,4.30
2017-12-15T23:18:58.500Z,4.40
2017-12-15T23:21:26.005Z,4.40
2017-12-15T23:23:53.479Z,4.30
2017-12-15T23:26:20.996Z,4.30
2017-12-15T23:28:48.483Z,4.30
2017-12-15T23:31:16.006Z,4.20
2017-12-15T23:33:43.546Z,4.10
2017-12-15T23:36:11.940Z,4.10
2017-12-15T23:38:39.431Z,4.10
2017-12-15T23:41:06.937Z,4.10
2017-12-15T23:43:34.501Z,4.10
2017-12-15T23:46:01.962Z,4.10
2017-12-15T23:48:30.212Z,4.30
2017-12-15T23:50:57.707Z,4.20
2017-12-15T23:53:25.192Z,4.40
2017-12-15T23:56:05.367Z,4.40
2017-12-15T23:58:33.608Z,4.30
